Terminal Aerodrome Forecast
Issued by NWS

Home | Current Version | Previous Version | Text Only | Print | Product List | Glossary On
Versions: 1 2 3 4 5 6 7 8 9 10 11 12 13 14 15 16 17 18 19 20 21 22 23 24 25 26 27 28 29 30 31 32 33 34 35 36
000
FTAK31 PAFA 181126
TAFASC
TAF
PASC 181126Z 1812/1912 06017KT 4SM BR SCT005 OVC015
     FM181500 06020KT 2SM BR SCT005 OVC015
     FM181800 06025KT 1 1/2SM BR BLSN SCT007 OVC015=

USA.gov is the U.S. government's official web portal to all federal, state and local government web resources and services.